Time,TemperatureF,DewpointF,PressureIn,WindDirection,WindDirectionDegrees,WindSpeedMPH,WindSpeedGustMPH,Humidity,HourlyPrecipIn,Conditions,Clouds,dailyrainin,SolarRadiationWatts/m^2,SoftwareType,DateUTC
2013-06-16 00:00:00,59.1,52.3,29.97,NW,315,0.0,0.0,78,0.00,,,0.00,0000,Weather View 32 v70,2013-06-16 04:00:00,
2013-06-16 00:05:00,58.9,52.1,29.97,NW,315,0.0,0.0,78,0.00,,,0.00,0000,Weather View 32 v70,2013-06-16 04:05:00,
2013-06-16 00:10:00,58.6,52.1,29.97,NW,315,0.0,0.0,79,0.00,,,0.00,0000,Weather View 32 v70,2013-06-16 04:10:00,
2013-06-16 00:15:00,58.4,51.8,29.96,NW,315,0.0,0.0,79,0.00,,,0.00,0008,Weather View 32 v70,2013-06-16 04:15:00,
2013-06-16 00:20:00,58.0,51.9,29.97,NW,315,0.0,0.0,80,0.00,,,0.00,0008,Weather View 32 v70,2013-06-16 04:20:00,
2013-06-16 00:25:00,57.9,51.8,29.97,NW,315,0.0,0.0,80,0.00,,,0.00,0000,Weather View 32 v70,2013-06-16 04:25:00,
2013-06-16 00:30:00,57.8,51.6,29.97,NW,315,0.0,0.0,80,0.00,,,0.00,0000,Weather View 32 v70,2013-06-16 04:30:00,
2013-06-16 00:35:00,57.8,52.0,29.97,NW,315,0.0,0.0,81,0.00,,,0.00,0000,Weather View 32 v70,2013-06-16 04:35:00,
2013-06-16 00:40:00,57.8,52.0,29.97,NW,315,0.0,0.0,81,0.00,,,0.00,0008,Weather View 32 v70,2013-06-16 04:40:00,
2013-06-16 00:50:00,57.9,52.1,29.97,NW,315,0.0,0.0,81,0.00,,,0.00,0000,Weather View 32 v70,2013-06-16 04:50:00,
2013-06-16 00:55:00,57.8,52.6,29.97,NW,315,0.0,0.0,83,0.00,,,0.00,0016,Weather View 32 v70,2013-06-16 04:55:00,
2013-06-16 01:00:00,57.6,52.1,29.96,NW,315,0.0,0.0,82,0.00,,,0.00,0000,Weather View 32 v70,2013-06-16 05:00:00,
2013-06-16 01:05:00,57.5,52.0,29.96,NW,315,0.0,0.0,82,0.00,,,0.00,0000,Weather View 32 v70,2013-06-16 05:05:00,
2013-06-16 01:10:00,57.3,51.9,29.96,NW,315,0.0,0.0,82,0.00,,,0.00,0000,Weather View 32 v70,2013-06-16 05:10:00,
2013-06-16 01:15:00,57.2,51.8,29.95,NW,315,0.0,0.0,82,0.00,,,0.00,0000,Weather View 32 v70,2013-06-16 05:15:00,
2013-06-16 01:25:00,57.1,51.7,29.95,NW,315,0.0,0.0,82,0.00,,,0.00,0000,Weather View 32 v70,2013-06-16 05:25:00,
2013-06-16 01:30:00,57.0,51.5,29.95,NW,315,0.0,0.0,82,0.00,,,0.00,0000,Weather View 32 v70,2013-06-16 05:30:00,
2013-06-16 01:40:00,56.7,51.2,29.95,NW,315,0.0,0.0,82,0.00,,,0.00,0000,Weather View 32 v70,2013-06-16 05:40:00,
2013-06-16 01:50:00,56.6,51.1,29.95,NW,315,0.0,0.0,82,0.00,,,0.00,0000,Weather View 32 v70,2013-06-16 05:50:00,
2013-06-16 01:55:00,56.4,51.0,29.96,NW,315,0.0,0.0,82,0.00,,,0.00,0000,Weather View 32 v70,2013-06-16 05:55:00,
2013-06-16 02:05:00,56.1,50.3,29.96,NW,315,0.0,0.0,81,0.00,,,0.00,0000,Weather View 32 v70,2013-06-16 06:05:00,
2013-06-16 02:15:00,55.7,49.9,29.96,NW,315,0.0,0.0,81,0.00,,,0.00,0000,Weather View 32 v70,2013-06-16 06:15:00,
2013-06-16 02:20:00,55.5,50.1,29.96,NW,315,0.0,0.0,82,0.00,,,0.00,0000,Weather View 32 v70,2013-06-16 06:20:00,
2013-06-16 02:30:00,55.2,49.8,29.95,NW,315,0.0,0.0,82,0.00,,,0.00,0000,Weather View 32 v70,2013-06-16 06:30:00,
2013-06-16 02:35:00,55.1,50.0,29.96,NW,315,0.0,0.0,83,0.00,,,0.00,0000,Weather View 32 v70,2013-06-16 06:35:00,
2013-06-16 02:45:00,55.2,50.1,29.96,NW,315,0.0,0.0,83,0.00,,,0.00,0000,Weather View 32 v70,2013-06-16 06:45:00,
2013-06-16 02:50:00,55.1,50.3,29.96,NW,315,0.0,0.0,84,0.00,,,0.00,0000,Weather View 32 v70,2013-06-16 06:50:00,
2013-06-16 03:00:00,54.9,49.8,29.96,NW,315,0.0,0.0,83,0.00,,,0.00,0008,Weather View 32 v70,2013-06-16 07:00:00,
2013-06-16 03:10:00,54.4,49.4,29.97,NW,315,0.0,0.0,83,0.00,,,0.00,0008,Weather View 32 v70,2013-06-16 07:10:00,
2013-06-16 03:20:00,54.2,48.8,29.97,NW,315,0.0,0.0,82,0.00,,,0.00,0000,Weather View 32 v70,2013-06-16 07:20:00,
2013-06-16 03:25:00,54.0,48.6,29.97,NW,315,0.0,0.0,82,0.00,,,0.00,0000,Weather View 32 v70,2013-06-16 07:25:00,
2013-06-16 03:30:00,53.9,48.5,29.97,NW,315,0.0,0.0,82,0.00,,,0.00,0000,Weather View 32 v70,2013-06-16 07:30:00,
2013-06-16 03:36:00,53.6,48.2,29.97,NW,315,0.0,0.0,82,0.00,,,0.00,0000,Weather View 32 v70,2013-06-16 07:36:00,
2013-06-16 03:45:00,53.4,48.0,29.96,NW,315,0.0,0.0,82,0.00,,,0.00,0000,Weather View 32 v70,2013-06-16 07:45:00,
2013-06-16 03:55:00,53.5,48.5,29.96,NW,315,0.0,0.0,83,0.00,,,0.00,0000,Weather View 32 v70,2013-06-16 07:55:00,
2013-06-16 04:00:00,53.5,48.5,29.96,NW,315,0.0,0.0,83,0.00,,,0.00,0000,Weather View 32 v70,2013-06-16 08:00:00,
2013-06-16 04:10:00,53.3,48.2,29.96,NW,315,0.0,0.0,83,0.00,,,0.00,0000,Weather View 32 v70,2013-06-16 08:10:00,
2013-06-16 04:15:00,53.2,48.1,29.96,NW,315,0.0,0.0,83,0.00,,,0.00,0000,Weather View 32 v70,2013-06-16 08:15:00,
2013-06-16 04:20:00,53.1,48.0,29.96,NW,315,0.0,0.0,83,0.00,,,0.00,0000,Weather View 32 v70,2013-06-16 08:20:00,
2013-06-16 04:25:00,53.0,47.9,29.97,NW,315,0.0,0.0,83,0.00,,,0.00,0008,Weather View 32 v70,2013-06-16 08:25:00,
2013-06-16 04:35:00,53.0,47.9,29.96,NW,315,0.0,0.0,83,0.00,,,0.00,0000,Weather View 32 v70,2013-06-16 08:35:00,
2013-06-16 04:40:00,52.8,47.8,29.96,NW,315,0.0,0.0,83,0.00,,,0.00,0000,Weather View 32 v70,2013-06-16 08:40:00,
2013-06-16 04:45:00,52.5,47.5,29.95,NW,315,0.0,0.0,83,0.00,,,0.00,0000,Weather View 32 v70,2013-06-16 08:45:00,
2013-06-16 04:50:00,52.2,47.2,29.95,NW,315,0.0,0.0,83,0.00,,,0.00,0000,Weather View 32 v70,2013-06-16 08:50:00,
2013-06-16 05:00:00,51.9,46.9,29.95,NW,315,0.0,0.0,83,0.00,,,0.00,0000,Weather View 32 v70,2013-06-16 09:00:00,
2013-06-16 05:10:00,52.1,47.4,29.96,NW,315,0.0,0.0,84,0.00,,,0.00,0000,Weather View 32 v70,2013-06-16 09:10:00,
2013-06-16 05:15:00,52.4,48.0,29.96,NW,315,0.0,0.0,85,0.00,,,0.00,0000,Weather View 32 v70,2013-06-16 09:15:00,
2013-06-16 05:20:00,52.3,47.9,29.96,NW,315,0.0,0.0,85,0.00,,,0.00,0000,Weather View 32 v70,2013-06-16 09:20:00,
2013-06-16 05:30:00,52.1,47.4,29.96,NW,315,0.0,0.0,84,0.00,,,0.00,0016,Weather View 32 v70,2013-06-16 09:30:00,
2013-06-16 05:35:00,52.3,47.6,29.96,NW,315,0.0,0.0,84,0.00,,,0.00,0008,Weather View 32 v70,2013-06-16 09:35:00,
2013-06-16 05:40:00,52.6,48.2,29.96,NW,315,0.0,0.0,85,0.00,,,0.00,0016,Weather View 32 v70,2013-06-16 09:40:00,
2013-06-16 05:45:00,52.6,48.2,29.96,NW,315,0.0,0.0,85,0.00,,,0.00,0016,Weather View 32 v70,2013-06-16 09:45:00,
2013-06-16 05:50:00,52.5,48.1,29.96,NW,315,0.0,0.0,85,0.00,,,0.00,0040,Weather View 32 v70,2013-06-16 09:50:00,
2013-06-16 06:00:00,52.3,47.9,29.96,NW,315,0.0,0.0,85,0.00,,,0.00,0032,Weather View 32 v70,2013-06-16 10:00:00,
2013-06-16 06:10:00,52.4,48.0,29.96,NW,315,0.0,0.0,85,0.00,,,0.00,0016,Weather View 32 v70,2013-06-16 10:10:00,
2013-06-16 06:20:00,52.4,48.0,29.97,NW,315,0.0,0.0,85,0.00,,,0.00,0040,Weather View 32 v70,2013-06-16 10:20:00,
2013-06-16 06:25:00,52.5,48.1,29.97,NW,315,0.0,0.0,85,0.00,,,0.00,0048,Weather View 32 v70,2013-06-16 10:25:00,
2013-06-16 06:35:00,52.8,48.4,29.97,NW,315,0.0,0.0,85,0.00,,,0.00,0032,Weather View 32 v70,2013-06-16 10:35:00,
2013-06-16 06:40:00,52.8,48.4,29.97,NW,315,0.0,0.0,85,0.00,,,0.00,0024,Weather View 32 v70,2013-06-16 10:40:00,
2013-06-16 06:50:00,53.2,48.8,29.96,NW,315,0.0,0.0,85,0.00,,,0.00,0024,Weather View 32 v70,2013-06-16 10:50:00,
2013-06-16 06:55:00,53.3,48.9,29.96,NW,315,0.0,0.0,85,0.00,,,0.00,0024,Weather View 32 v70,2013-06-16 10:55:00,
2013-06-16 07:00:00,53.6,49.2,29.96,NW,315,0.0,0.0,85,0.00,,,0.00,0024,Weather View 32 v70,2013-06-16 11:00:00,
2013-06-16 07:10:00,54.1,49.7,29.95,NW,315,0.0,0.0,85,0.00,,,0.00,0024,Weather View 32 v70,2013-06-16 11:10:00,
2013-06-16 07:15:00,54.5,50.1,29.96,NW,315,0.0,0.0,85,0.00,,,0.00,0064,Weather View 32 v70,2013-06-16 11:15:00,
2013-06-16 07:25:00,55.3,51.2,29.96,NW,315,0.0,0.0,86,0.00,,,0.00,0064,Weather View 32 v70,2013-06-16 11:25:00,
2013-06-16 07:30:00,55.8,51.3,29.97,NW,315,0.0,0.0,85,0.00,,,0.00,0040,Weather View 32 v70,2013-06-16 11:30:00,
2013-06-16 07:35:00,56.3,51.9,29.97,NW,315,0.0,0.0,85,0.00,,,0.00,0064,Weather View 32 v70,2013-06-16 11:35:00,
2013-06-16 07:40:00,56.9,52.4,29.97,NW,315,0.0,0.0,85,0.00,,,0.00,0080,Weather View 32 v70,2013-06-16 11:40:00,
2013-06-16 07:50:00,58.6,53.7,29.97,NW,315,0.0,0.0,84,0.00,,,0.00,0144,Weather View 32 v70,2013-06-16 11:50:00,
2013-06-16 07:55:00,59.6,54.4,29.96,WNW,293,0.0,0.0,83,0.00,,,0.00,0240,Weather View 32 v70,2013-06-16 11:55:00,
2013-06-16 08:05:00,60.8,54.9,29.96,WNW,293,0.0,0.0,81,0.00,,,0.00,0176,Weather View 32 v70,2013-06-16 12:05:00,
2013-06-16 08:15:00,62.1,55.5,29.97,West,270,0.0,0.0,79,0.00,,,0.00,0456,Weather View 32 v70,2013-06-16 12:15:00,
2013-06-16 08:20:00,63.3,56.3,29.96,WNW,293,0.0,0.0,78,0.00,,,0.00,0480,Weather View 32 v70,2013-06-16 12:20:00,
2013-06-16 08:25:00,64.4,56.7,29.96,WNW,293,0.0,0.0,76,0.00,,,0.00,0512,Weather View 32 v70,2013-06-16 12:25:00,
2013-06-16 08:35:00,66.9,57.9,29.96,NNW,338,0.0,0.0,73,0.00,,,0.00,0592,Weather View 32 v70,2013-06-16 12:35:00,
2013-06-16 08:45:00,68.1,57.1,29.95,WNW,293,0.0,1.0,68,0.00,,,0.00,0688,Weather View 32 v70,2013-06-16 12:45:00,
2013-06-16 08:50:00,68.9,57.5,29.95,SW,225,0.0,1.0,67,0.00,,,0.00,0440,Weather View 32 v70,2013-06-16 12:50:00,
2013-06-16 09:00:00,68.3,53.8,29.95,WNW,293,0.0,4.0,60,0.00,,,0.00,0224,Weather View 32 v70,2013-06-16 13:00:00,
2013-06-16 09:05:00,67.7,55.0,29.95,WNW,293,0.0,4.0,64,0.00,,,0.00,0248,Weather View 32 v70,2013-06-16 13:05:00,
2013-06-16 09:10:00,67.5,55.3,29.96,SW,225,0.0,4.0,65,0.00,,,0.00,0208,Weather View 32 v70,2013-06-16 13:10:00,
2013-06-16 09:15:00,67.4,55.6,29.96,WNW,293,0.0,4.0,66,0.00,,,0.00,0296,Weather View 32 v70,2013-06-16 13:15:00,
2013-06-16 09:20:00,67.5,56.1,29.96,WSW,248,0.0,4.0,67,0.00,,,0.00,0328,Weather View 32 v70,2013-06-16 13:20:00,
2013-06-16 09:25:00,67.6,56.2,29.96,WNW,293,0.0,4.0,67,0.00,,,0.00,0296,Weather View 32 v70,2013-06-16 13:25:00,
2013-06-16 09:35:00,67.9,56.1,29.95,WSW,248,0.0,4.0,66,0.00,,,0.00,0328,Weather View 32 v70,2013-06-16 13:35:00,
2013-06-16 09:40:00,68.1,57.6,29.96,WNW,293,0.0,4.0,69,0.00,,,0.00,0312,Weather View 32 v70,2013-06-16 13:40:00,
2013-06-16 09:45:00,68.3,56.4,29.95,WNW,293,0.0,4.0,66,0.00,,,0.00,0344,Weather View 32 v70,2013-06-16 13:45:00,
2013-06-16 09:55:00,68.3,56.0,29.95,WNW,293,0.0,3.0,65,0.00,,,0.00,0384,Weather View 32 v70,2013-06-16 13:55:00,
2013-06-16 10:00:00,68.0,53.6,29.95,WNW,293,0.0,4.0,60,0.00,,,0.00,0312,Weather View 32 v70,2013-06-16 14:00:00,
2013-06-16 10:05:00,67.8,53.8,29.95,WNW,293,0.0,4.0,61,0.00,,,0.00,0512,Weather View 32 v70,2013-06-16 14:05:00,
2013-06-16 10:15:00,68.7,50.8,29.94,West,270,0.0,4.0,53,0.00,,,0.00,0784,Weather View 32 v70,2013-06-16 14:15:00,
2013-06-16 10:20:00,69.3,55.7,29.93,WNW,293,0.0,4.0,62,0.00,,,0.00,0440,Weather View 32 v70,2013-06-16 14:20:00,
2013-06-16 10:25:00,69.3,53.8,29.94,WNW,293,0.0,4.0,58,0.00,,,0.00,0480,Weather View 32 v70,2013-06-16 14:25:00,
2013-06-16 10:30:00,69.6,56.0,29.93,WNW,293,0.0,4.0,62,0.00,,,0.00,0344,Weather View 32 v70,2013-06-16 14:30:00,
2013-06-16 10:39:00,69.6,56.8,29.92,WSW,248,0.0,4.0,64,0.00,,,0.00,0296,Weather View 32 v70,2013-06-16 14:39:00,
2013-06-16 10:45:00,70.4,52.4,29.94,West,270,0.0,4.0,53,0.00,,,0.00,0624,Weather View 32 v70,2013-06-16 14:45:00,
2013-06-16 10:50:00,70.8,52.8,29.94,NW,315,0.0,4.0,53,0.00,,,0.00,0488,Weather View 32 v70,2013-06-16 14:50:00,
2013-06-16 10:55:00,70.8,55.3,29.93,NNW,338,0.0,4.0,58,0.00,,,0.00,0408,Weather View 32 v70,2013-06-16 14:55:00,
2013-06-16 11:00:00,70.6,52.1,29.93,WNW,293,0.0,4.0,52,0.00,,,0.00,0408,Weather View 32 v70,2013-06-16 15:00:00,
2013-06-16 11:10:00,70.6,54.6,29.93,WNW,293,0.0,5.0,57,0.00,,,0.00,0448,Weather View 32 v70,2013-06-16 15:10:00,
2013-06-16 11:15:00,70.7,54.2,29.93,WNW,293,0.0,5.0,56,0.00,,,0.00,0464,Weather View 32 v70,2013-06-16 15:15:00,
2013-06-16 11:25:00,71.0,53.9,29.92,West,270,3.0,6.0,55,0.00,,,0.00,0344,Weather View 32 v70,2013-06-16 15:25:00,
2013-06-16 11:30:00,70.6,52.1,29.93,NNW,338,0.0,6.0,52,0.00,,,0.00,0288,Weather View 32 v70,2013-06-16 15:30:00,
2013-06-16 11:35:00,70.3,53.3,29.92,NNW,338,1.0,6.0,55,0.00,,,0.00,0240,Weather View 32 v70,2013-06-16 15:35:00,
2013-06-16 11:40:00,69.8,52.9,29.92,West,270,0.0,6.0,55,0.00,,,0.00,0224,Weather View 32 v70,2013-06-16 15:40:00,
2013-06-16 11:50:00,70.1,55.9,29.91,WSW,248,0.0,6.0,61,0.00,,,0.00,0424,Weather View 32 v70,2013-06-16 15:50:00,
2013-06-16 11:55:00,70.7,56.1,29.91,West,270,0.0,6.0,60,0.00,,,0.00,0616,Weather View 32 v70,2013-06-16 15:55:00,
2013-06-16 12:00:00,71.7,54.7,29.91,SSW,203,2.0,6.0,55,0.00,,,0.00,0592,Weather View 32 v70,2013-06-16 16:00:00,
2013-06-16 12:05:00,72.3,54.7,29.91,WSW,248,0.0,6.0,54,0.00,,,0.00,0448,Weather View 32 v70,2013-06-16 16:05:00,
2013-06-16 12:10:00,71.6,54.0,29.91,WNW,293,3.0,8.0,54,0.00,,,0.00,0360,Weather View 32 v70,2013-06-16 16:10:00,
2013-06-16 12:20:00,72.0,55.4,29.90,WNW,293,0.0,8.0,56,0.00,,,0.00,0624,Weather View 32 v70,2013-06-16 16:20:00,
2013-06-16 12:25:00,72.3,55.2,29.90,WNW,293,0.0,8.0,55,0.00,,,0.00,0712,Weather View 32 v70,2013-06-16 16:25:00,
2013-06-16 12:30:00,72.3,55.7,29.90,North,0,0.0,8.0,56,0.00,,,0.00,0648,Weather View 32 v70,2013-06-16 16:30:00,
2013-06-16 12:40:00,73.1,56.9,29.89,WNW,293,0.0,8.0,57,0.00,,,0.00,0824,Weather View 32 v70,2013-06-16 16:40:00,
2013-06-16 12:45:00,73.2,58.0,29.89,NW,315,0.0,8.0,59,0.00,,,0.00,0664,Weather View 32 v70,2013-06-16 16:45:00,
2013-06-16 12:50:00,73.4,56.2,29.90,NW,315,1.0,8.0,55,0.00,,,0.00,0600,Weather View 32 v70,2013-06-16 16:50:00,
2013-06-16 12:55:00,73.7,55.9,29.89,South,180,0.0,8.0,54,0.00,,,0.00,0528,Weather View 32 v70,2013-06-16 16:55:00,
2013-06-16 13:00:00,73.5,55.3,29.89,WSW,248,0.0,8.0,53,0.00,,,0.00,0472,Weather View 32 v70,2013-06-16 17:00:00,
2013-06-16 13:10:00,73.3,51.2,29.89,WNW,293,0.0,7.0,46,0.00,,,0.00,0528,Weather View 32 v70,2013-06-16 17:10:00,
2013-06-16 13:15:00,73.2,51.7,29.89,WNW,293,0.0,7.0,47,0.00,,,0.00,0472,Weather View 32 v70,2013-06-16 17:15:00,
2013-06-16 13:20:00,73.0,52.1,29.89,WNW,293,0.0,7.0,48,0.00,,,0.00,0576,Weather View 32 v70,2013-06-16 17:20:00,
2013-06-16 13:30:00,73.9,51.7,29.88,NW,315,0.0,7.0,46,0.00,,,0.00,0712,Weather View 32 v70,2013-06-16 17:30:00,
2013-06-16 13:35:00,74.6,54.6,29.88,WSW,248,4.0,10.0,50,0.00,,,0.00,0976,Weather View 32 v70,2013-06-16 17:35:00,
2013-06-16 13:40:00,74.8,51.9,29.88,WSW,248,7.0,12.0,45,0.00,,,0.00,0984,Weather View 32 v70,2013-06-16 17:40:00,
2013-06-16 13:50:00,75.5,54.3,29.87,NW,315,0.0,14.0,48,0.00,,,0.00,0944,Weather View 32 v70,2013-06-16 17:50:00,
2013-06-16 14:00:00,74.1,51.3,29.86,SW,225,3.0,14.0,45,0.00,,,0.00,0416,Weather View 32 v70,2013-06-16 18:00:00,
2013-06-16 14:05:00,73.5,52.0,29.86,WNW,293,0.0,14.0,47,0.00,,,0.00,0376,Weather View 32 v70,2013-06-16 18:05:00,
2013-06-16 14:10:00,73.4,53.0,29.86,NW,315,1.0,14.0,49,0.00,,,0.00,0576,Weather View 32 v70,2013-06-16 18:10:00,
2013-06-16 14:20:00,73.7,53.2,29.86,WSW,248,0.0,14.0,49,0.00,,,0.00,0440,Weather View 32 v70,2013-06-16 18:20:00,
2013-06-16 14:25:00,73.7,54.9,29.86,SSW,203,3.0,14.0,52,0.00,,,0.00,0288,Weather View 32 v70,2013-06-16 18:25:00,
2013-06-16 14:30:00,73.2,53.9,29.85,SSW,203,0.0,14.0,51,0.00,,,0.00,0272,Weather View 32 v70,2013-06-16 18:30:00,
2013-06-16 14:35:00,72.8,53.5,29.85,West,270,2.0,14.0,51,0.00,,,0.00,0208,Weather View 32 v70,2013-06-16 18:35:00,
2013-06-16 14:42:00,72.1,53.9,29.84,WNW,293,0.0,14.0,53,0.00,,,0.00,0224,Weather View 32 v70,2013-06-16 18:42:00,
2013-06-16 14:50:00,71.5,54.5,29.84,SW,225,0.0,14.0,55,0.00,,,0.00,0352,Weather View 32 v70,2013-06-16 18:50:00,
2013-06-16 15:00:00,71.2,56.1,29.83,SW,225,0.0,14.0,59,0.00,,,0.00,0224,Weather View 32 v70,2013-06-16 19:00:00,
2013-06-16 15:05:00,70.8,56.2,29.83,WNW,293,0.0,11.0,60,0.00,,,0.00,0280,Weather View 32 v70,2013-06-16 19:05:00,
2013-06-16 15:10:00,70.6,56.5,29.83,West,270,2.0,11.0,61,0.00,,,0.00,0288,Weather View 32 v70,2013-06-16 19:10:00,
2013-06-16 15:15:00,69.9,55.4,29.83,WSW,248,0.0,11.0,60,0.00,,,0.00,0144,Weather View 32 v70,2013-06-16 19:15:00,
2013-06-16 15:20:00,69.4,55.7,29.83,West,270,0.0,11.0,62,0.00,,,0.00,0136,Weather View 32 v70,2013-06-16 19:20:00,
2013-06-16 15:25:00,68.9,55.8,29.83,WNW,293,0.0,11.0,63,0.00,,,0.00,0104,Weather View 32 v70,2013-06-16 19:25:00,
2013-06-16 15:35:00,68.5,56.2,29.83,South,180,0.0,11.0,65,0.00,,,0.00,0096,Weather View 32 v70,2013-06-16 19:35:00,
2013-06-16 15:42:00,68.1,55.9,29.83,NW,315,0.0,11.0,65,0.00,,,0.00,0200,Weather View 32 v70,2013-06-16 19:42:00,
2013-06-16 15:50:00,67.9,55.7,29.83,NNE,23,0.0,7.0,65,0.00,,,0.00,0200,Weather View 32 v70,2013-06-16 19:50:00,
2013-06-16 15:55:00,68.0,56.2,29.82,NNE,23,0.0,7.0,66,0.00,,,0.00,0280,Weather View 32 v70,2013-06-16 19:55:00,
2013-06-16 16:00:00,68.1,56.7,29.82,NW,315,0.0,7.0,67,0.00,,,0.00,0272,Weather View 32 v70,2013-06-16 20:00:00,
2013-06-16 16:05:00,68.5,57.5,29.82,West,270,0.0,7.0,68,0.00,,,0.00,0384,Weather View 32 v70,2013-06-16 20:05:00,
2013-06-16 16:15:00,68.8,58.6,29.81,SW,225,0.0,7.0,70,0.00,,,0.00,0560,Weather View 32 v70,2013-06-16 20:15:00,
2013-06-16 16:20:00,69.4,59.1,29.81,SSE,158,0.0,7.0,70,0.00,,,0.00,0272,Weather View 32 v70,2013-06-16 20:20:00,
2013-06-16 16:30:00,69.2,59.3,29.80,WSW,248,1.0,17.0,71,0.00,,,0.00,0304,Weather View 32 v70,2013-06-16 20:30:00,
2013-06-16 16:40:00,69.9,59.7,29.80,WNW,293,0.0,17.0,70,0.00,,,0.00,0272,Weather View 32 v70,2013-06-16 20:40:00,
2013-06-16 16:45:00,69.3,59.4,29.80,South,180,0.0,17.0,71,0.00,,,0.00,0248,Weather View 32 v70,2013-06-16 20:45:00,
2013-06-16 16:50:00,68.8,59.0,29.81,WNW,293,2.0,17.0,71,0.00,,,0.00,0264,Weather View 32 v70,2013-06-16 20:50:00,
2013-06-16 16:55:00,68.3,58.8,29.81,WNW,293,0.0,17.0,72,0.00,,,0.00,0296,Weather View 32 v70,2013-06-16 20:55:00,
2013-06-16 17:05:00,67.7,58.3,29.81,WSW,248,3.0,17.0,72,0.00,,,0.00,0280,Weather View 32 v70,2013-06-16 21:05:00,
2013-06-16 17:15:00,67.7,59.1,29.80,WNW,293,0.0,17.0,74,0.00,,,0.00,0344,Weather View 32 v70,2013-06-16 21:15:00,
2013-06-16 17:20:00,67.6,59.0,29.80,WNW,293,0.0,17.0,74,0.00,,,0.00,0192,Weather View 32 v70,2013-06-16 21:20:00,
2013-06-16 17:25:00,67.5,58.5,29.80,SW,225,0.0,17.0,73,0.00,,,0.00,0096,Weather View 32 v70,2013-06-16 21:25:00,
2013-06-16 17:30:00,67.1,58.5,29.80,WNW,293,0.0,12.0,74,0.00,,,0.00,0112,Weather View 32 v70,2013-06-16 21:30:00,
2013-06-16 17:35:00,66.9,58.3,29.79,North,0,0.0,12.0,74,0.00,,,0.00,0128,Weather View 32 v70,2013-06-16 21:35:00,
2013-06-16 17:43:00,66.9,58.3,29.80,SSE,158,0.0,12.0,74,0.00,,,0.00,0080,Weather View 32 v70,2013-06-16 21:43:00,
2013-06-16 17:50:00,66.5,58.3,29.78,WNW,293,0.0,12.0,75,0.00,,,0.00,0096,Weather View 32 v70,2013-06-16 21:50:00,
2013-06-16 18:00:00,66.8,58.6,29.78,SSE,158,5.0,10.0,75,0.00,,,0.00,0200,Weather View 32 v70,2013-06-16 22:00:00,
2013-06-16 18:05:00,66.8,59.0,29.78,NW,315,2.0,10.0,76,0.00,,,0.00,0192,Weather View 32 v70,2013-06-16 22:05:00,
2013-06-16 18:15:00,66.9,59.1,29.77,SE,135,0.0,10.0,76,0.00,,,0.00,0120,Weather View 32 v70,2013-06-16 22:15:00,
2013-06-16 18:25:00,66.9,59.1,29.77,WSW,248,0.0,10.0,76,0.00,,,0.00,0104,Weather View 32 v70,2013-06-16 22:25:00,
2013-06-16 18:30:00,67.0,58.8,29.77,WSW,248,0.0,10.0,75,0.00,,,0.00,0064,Weather View 32 v70,2013-06-16 22:30:00,
2013-06-16 18:40:00,66.7,58.8,29.77,WNW,293,0.0,10.0,76,0.00,,,0.00,0080,Weather View 32 v70,2013-06-16 22:40:00,
2013-06-16 18:45:00,66.6,58.7,29.77,WSW,248,0.0,10.0,76,0.00,,,0.00,0064,Weather View 32 v70,2013-06-16 22:45:00,
2013-06-16 18:55:00,66.3,58.5,29.77,NW,315,0.0,10.0,76,0.00,,,0.00,0064,Weather View 32 v70,2013-06-16 22:55:00,
2013-06-16 19:00:00,66.2,58.4,29.77,WNW,293,0.0,10.0,76,0.00,,,0.00,0056,Weather View 32 v70,2013-06-16 23:00:00,
2013-06-16 19:05:00,66.2,58.8,29.77,NW,315,0.0,10.0,77,0.00,,,0.00,0032,Weather View 32 v70,2013-06-16 23:05:00,
2013-06-16 19:15:00,65.9,58.5,29.77,NW,315,0.0,8.0,77,0.00,,,0.00,0048,Weather View 32 v70,2013-06-16 23:15:00,
2013-06-16 19:20:00,65.8,58.3,29.77,WSW,248,0.0,8.0,77,0.00,,,0.00,0016,Weather View 32 v70,2013-06-16 23:20:00,
2013-06-16 19:25:00,65.7,58.2,29.77,SW,225,0.0,8.0,77,0.00,,,0.00,0016,Weather View 32 v70,2013-06-16 23:25:00,
2013-06-16 19:30:00,65.6,58.5,29.77,WNW,293,0.0,8.0,78,0.00,,,0.00,0032,Weather View 32 v70,2013-06-16 23:30:00,
2013-06-16 19:35:00,65.4,58.0,29.77,WNW,293,1.0,8.0,77,0.00,,,0.00,0000,Weather View 32 v70,2013-06-16 23:35:00,
2013-06-16 19:40:00,65.2,58.2,29.77,NW,315,0.0,8.0,78,0.00,,,0.00,0000,Weather View 32 v70,2013-06-16 23:40:00,
2013-06-16 19:50:00,65.2,58.2,29.77,NW,315,0.0,8.0,78,0.00,,,0.00,0000,Weather View 32 v70,2013-06-16 23:50:00,
2013-06-16 19:55:00,65.0,58.3,29.77,NW,315,0.0,8.0,79,0.00,,,0.00,0008,Weather View 32 v70,2013-06-16 23:55:00,
2013-06-16 20:05:00,64.9,58.5,29.77,West,270,0.0,7.0,80,0.00,,,0.00,0000,Weather View 32 v70,2013-06-17 00:05:00,
2013-06-16 20:15:00,64.8,58.1,29.77,NW,315,0.0,7.0,79,0.00,,,0.00,0000,Weather View 32 v70,2013-06-17 00:15:00,
2013-06-16 20:25:00,64.8,58.1,29.77,WNW,293,0.0,7.0,79,0.00,,,0.00,0008,Weather View 32 v70,2013-06-17 00:25:00,
2013-06-16 20:30:00,64.8,58.1,29.77,WNW,293,0.0,7.0,79,0.00,,,0.00,0000,Weather View 32 v70,2013-06-17 00:30:00,
2013-06-16 20:40:00,64.7,58.0,29.77,WNW,293,0.0,5.0,79,0.00,,,0.00,0008,Weather View 32 v70,2013-06-17 00:40:00,
2013-06-16 20:45:00,64.5,57.9,29.77,WSW,248,0.0,5.0,79,0.00,,,0.00,0008,Weather View 32 v70,2013-06-17 00:45:00,
2013-06-16 20:55:00,64.5,57.9,29.77,WSW,248,0.0,4.0,79,0.00,,,0.00,0000,Weather View 32 v70,2013-06-17 00:55:00,
2013-06-16 21:00:00,64.4,57.7,29.77,West,270,0.0,2.0,79,0.00,,,0.00,0000,Weather View 32 v70,2013-06-17 01:00:00,
2013-06-16 21:05:00,64.4,57.7,29.77,WNW,293,0.0,2.0,79,0.00,,,0.00,0000,Weather View 32 v70,2013-06-17 01:05:00,
2013-06-16 21:15:00,64.1,57.8,29.78,WNW,293,0.0,2.0,80,0.00,,,0.00,0000,Weather View 32 v70,2013-06-17 01:15:00,
2013-06-16 21:20:00,64.2,57.9,29.78,West,270,0.0,2.0,80,0.00,,,0.00,0000,Weather View 32 v70,2013-06-17 01:20:00,
2013-06-16 21:30:00,64.1,57.8,29.78,NW,315,0.0,2.0,80,0.00,,,0.00,0000,Weather View 32 v70,2013-06-17 01:30:00,
2013-06-16 21:40:00,64.1,57.8,29.78,West,270,0.0,2.0,80,0.00,,,0.00,0000,Weather View 32 v70,2013-06-17 01:40:00,
2013-06-16 21:45:00,64.1,57.8,29.79,WNW,293,0.0,3.0,80,0.00,,,0.00,0000,Weather View 32 v70,2013-06-17 01:45:00,
2013-06-16 21:55:00,64.3,58.0,29.78,West,270,0.0,3.0,80,0.00,,,0.00,0000,Weather View 32 v70,2013-06-17 01:55:00,
2013-06-16 22:00:00,64.4,58.1,29.78,WNW,293,0.0,3.0,80,0.00,,,0.00,0016,Weather View 32 v70,2013-06-17 02:00:00,
2013-06-16 22:10:00,64.7,58.3,29.79,West,270,0.0,5.0,80,0.00,,,0.00,0000,Weather View 32 v70,2013-06-17 02:10:00,
2013-06-16 22:15:00,64.7,58.3,29.79,WNW,293,0.0,5.0,80,0.00,,,0.00,0000,Weather View 32 v70,2013-06-17 02:15:00,
2013-06-16 22:25:00,64.9,58.5,29.80,West,270,0.0,5.0,80,0.00,,,0.00,0000,Weather View 32 v70,2013-06-17 02:25:00,
2013-06-16 22:30:00,64.8,58.4,29.80,WNW,293,0.0,5.0,80,0.00,,,0.00,0000,Weather View 32 v70,2013-06-17 02:30:00,
2013-06-16 22:40:00,64.8,58.4,29.80,WNW,293,0.0,5.0,80,0.00,,,0.00,0000,Weather View 32 v70,2013-06-17 02:40:00,
2013-06-16 22:46:00,64.7,58.3,29.80,West,270,0.0,5.0,80,0.00,,,0.00,0000,Weather View 32 v70,2013-06-17 02:46:00,
2013-06-16 22:55:00,64.7,58.3,29.80,WNW,293,0.0,5.0,80,0.00,,,0.00,0016,Weather View 32 v70,2013-06-17 02:55:00,
2013-06-16 23:00:00,64.7,58.3,29.80,WNW,293,0.0,5.0,80,0.00,,,0.00,0000,Weather View 32 v70,2013-06-17 03:00:00,
2013-06-16 23:10:00,64.4,58.1,29.81,WNW,293,0.0,5.0,80,0.00,,,0.00,0000,Weather View 32 v70,2013-06-17 03:10:00,
2013-06-16 23:15:00,64.3,58.0,29.80,West,270,0.0,5.0,80,0.00,,,0.00,0008,Weather View 32 v70,2013-06-17 03:15:00,
2013-06-16 23:25:00,64.1,57.8,29.81,WNW,293,0.0,5.0,80,0.00,,,0.00,0008,Weather View 32 v70,2013-06-17 03:25:00,
2013-06-16 23:30:00,64.0,57.7,29.81,WNW,293,0.0,4.0,80,0.00,,,0.00,0000,Weather View 32 v70,2013-06-17 03:30:00,
2013-06-16 23:35:00,64.0,58.0,29.81,WNW,293,0.0,4.0,81,0.00,,,0.00,0000,Weather View 32 v70,2013-06-17 03:35:00,
2013-06-16 23:40:00,63.9,57.6,29.81,WNW,293,0.0,4.0,80,0.00,,,0.00,0000,Weather View 32 v70,2013-06-17 03:40:00,
2013-06-16 23:45:00,63.8,57.4,29.82,WNW,293,0.0,4.0,80,0.00,,,0.00,0000,Weather View 32 v70,2013-06-17 03:45:00,
2013-06-16 23:55:00,63.5,57.6,29.82,WSW,248,0.0,4.0,81,0.00,,,0.00,0008,Weather View 32 v70,2013-06-17 03:55:00,